Ontario International Airport
KONT : now visible

Airfield :











YOU CAN JOIN US ON...

 
LOGIN :

Register | Disclaimer

   EN    FR    IT 

 









Legend :    VFR   Marginal VFR   IFR   Intensive IFR   Very Intensive IFR
Visi :
Ceiling :
>= 8 km
>= 3000ft
5 to 8 km
1000 to 3000 ft
1500m to 5 km
500 to 1000 ft
800 to 1500m
200 to 500 ft
< 800m
< 200 ft
Symbols :   Thunderstorms  Fog  Heavy snow  Heavy precipitations  Wind > 20 kt







- Airport Elevation : 944 ft
- IATA code : ONT


KONT - Ontario International

CURRENT METAR :
  • 261453Z 26006KT 9SM FEW018 BKN035 OVC047 16/11 A2989 RMK AO2 SLP116 60000 T01560111 53012

EXPIRED METARs :
  • 261353Z 27007KT 10SM FEW018 BKN035 OVC047 15/11 A2988 RMK AO2 SLP110 T01500111
  • 261253Z 26006KT 10SM FEW018 BKN029 OVC045 15/12 A2986 RMK AO2 RAB22E37 SLP104 P0000 T01500117

TAF KONT
Valid from the 26 at 12:00 until the 27 at 18:00 UTC


261124Z 2612/2718 26008KT P6SM FEW015 BKN025 OVC045
FM261600 23006KT P6SM -SHRA SCT015 BKN025
FM262100 24012G20KT P6SM -SHRA SCT025 BKN040
FM270500 26010KT P6SM VCSH BKN040
FM270800 VRB05KT P6SM BKN040
KZLA FIR / North America



MET'MAP, your aeronautical weather chart ! - Copyright ORBIFLY December 2007 - Disclaimer

ORBIFLY MET'MAP TEAM :

Programming & Development : Alexandra Zaïnal
Concept & Development : Baudouin d'Aumeries
Co-Development & Prog : Marc-Olivier Méhu
Technical & hardware support : Manuel Goepfert

Contact : metmap@orbifly.com




SOURCES & CREDITS :

   NOAA       Earth
Advisory